createdAt,value
2023-05-19T00:02:26.718Z,10.55
2023-05-19T00:04:55.498Z,10.52
2023-05-19T00:07:25.266Z,10.46
2023-05-19T00:09:52.886Z,10.38
2023-05-19T00:12:20.294Z,10.44
2023-05-19T00:14:47.991Z,10.27
2023-05-19T00:17:17.210Z,10.22
2023-05-19T00:19:45.929Z,10.16
2023-05-19T00:22:13.611Z,10.15
2023-05-19T00:24:42.114Z,10.12
2023-05-19T00:27:09.308Z,10.15
2023-05-19T00:29:36.698Z,9.99
2023-05-19T00:32:08.223Z,9.89
2023-05-19T00:34:35.707Z,9.86
2023-05-19T00:37:03.483Z,9.86
2023-05-19T00:39:31.375Z,10.06
2023-05-19T00:41:59.096Z,9.83
2023-05-19T00:44:27.005Z,9.79
2023-05-19T00:46:54.253Z,9.70
2023-05-19T00:49:21.933Z,9.78
2023-05-19T00:51:51.027Z,9.78
2023-05-19T00:54:21.280Z,9.58
2023-05-19T00:56:50.278Z,9.58
2023-05-19T00:59:19.195Z,9.46
2023-05-19T01:01:49.412Z,9.43
2023-05-19T01:04:20.553Z,9.45
2023-05-19T01:06:55.251Z,9.42
2023-05-19T01:09:23.069Z,9.54
2023-05-19T01:11:50.855Z,9.61
2023-05-19T01:14:19.215Z,9.49
2023-05-19T01:17:05.938Z,9.59
2023-05-19T01:19:42.365Z,9.48
2023-05-19T01:22:15.621Z,9.45
2023-05-19T01:24:42.956Z,9.42
2023-05-19T01:27:42.868Z,9.41
2023-05-19T01:30:10.075Z,9.31
2023-05-19T01:32:38.876Z,9.27
2023-05-19T01:35:07.054Z,9.21
2023-05-19T01:37:35.181Z,9.22
2023-05-19T01:40:03.042Z,9.09
2023-05-19T01:42:37.546Z,9.03
2023-05-19T01:45:07.152Z,9.11
2023-05-19T01:47:35.841Z,9.29
2023-05-19T01:50:04.333Z,9.36
2023-05-19T01:52:33.182Z,9.22
2023-05-19T01:55:01.087Z,9.09
2023-05-19T01:57:49.224Z,9.22
2023-05-19T02:00:46.400Z,9.19
2023-05-19T02:03:32.276Z,9.30
2023-05-19T02:06:15.263Z,9.31
2023-05-19T02:09:01.670Z,9.27
2023-05-19T02:11:36.902Z,9.23
2023-05-19T02:14:08.736Z,9.06
2023-05-19T02:16:37.193Z,9.13
2023-05-19T02:19:04.644Z,9.17
2023-05-19T02:21:34.109Z,9.31
2023-05-19T02:24:01.752Z,9.12
2023-05-19T02:26:28.947Z,9.19
2023-05-19T02:28:56.552Z,9.09
2023-05-19T02:31:25.165Z,9.13
2023-05-19T02:33:52.800Z,9.09
2023-05-19T02:36:20.043Z,9.14
2023-05-19T02:38:47.776Z,9.16
2023-05-19T02:41:15.843Z,9.03
2023-05-19T02:43:43.219Z,9.02
2023-05-19T02:46:10.558Z,9.09
2023-05-19T02:48:38.076Z,9.00
2023-05-19T02:51:05.575Z,9.02
2023-05-19T02:53:32.780Z,8.93
2023-05-19T02:56:00.041Z,8.93
2023-05-19T02:58:27.228Z,9.03
2023-05-19T03:00:56.579Z,8.94
2023-05-19T03:03:24.458Z,8.95
2023-05-19T03:05:54.044Z,9.01
2023-05-19T03:08:21.284Z,9.05
2023-05-19T03:10:52.199Z,9.05
2023-05-19T03:13:19.612Z,9.04
2023-05-19T03:15:47.964Z,8.95
2023-05-19T03:18:15.998Z,8.81
2023-05-19T03:20:45.019Z,8.63
2023-05-19T03:23:12.619Z,8.61
2023-05-19T03:25:40.318Z,8.53
2023-05-19T03:28:07.731Z,8.62
2023-05-19T03:30:35.282Z,8.68
2023-05-19T03:33:13.115Z,8.76
2023-05-19T03:35:41.663Z,8.67
2023-05-19T03:38:09.278Z,8.60
2023-05-19T03:40:37.451Z,8.67
2023-05-19T03:43:09.484Z,8.59
2023-05-19T03:45:43.980Z,8.63
2023-05-19T03:48:34.807Z,8.55
2023-05-19T03:51:21.325Z,8.53
2023-05-19T03:53:51.289Z,8.29
2023-05-19T03:56:19.237Z,8.37
2023-05-19T03:58:47.607Z,8.38
2023-05-19T04:01:15.671Z,8.38
2023-05-19T04:03:43.155Z,8.26
2023-05-19T04:06:10.572Z,8.34
2023-05-19T04:08:40.754Z,8.33
2023-05-19T04:11:08.035Z,8.39
2023-05-19T04:13:36.211Z,8.44
2023-05-19T04:16:03.604Z,8.35
2023-05-19T04:18:34.057Z,8.22
2023-05-19T04:21:02.097Z,8.24
2023-05-19T04:23:29.564Z,8.17
2023-05-19T04:25:58.903Z,8.19
2023-05-19T04:28:26.462Z,8.06
2023-05-19T04:30:53.981Z,8.08
2023-05-19T04:33:22.077Z,7.97
2023-05-19T04:35:50.851Z,7.93
2023-05-19T04:38:20.371Z,7.81
2023-05-19T04:40:50.562Z,7.87
2023-05-19T04:43:19.671Z,7.90
2023-05-19T04:45:47.756Z,7.89
2023-05-19T04:48:16.139Z,7.88
2023-05-19T04:50:44.520Z,7.80
2023-05-19T04:53:12.490Z,7.87
2023-05-19T04:55:40.237Z,7.85
2023-05-19T04:58:10.682Z,7.91
2023-05-19T05:00:38.567Z,8.01
2023-05-19T05:03:08.623Z,7.98
2023-05-19T05:05:36.559Z,7.96
2023-05-19T05:08:04.573Z,7.98
2023-05-19T05:10:37.270Z,7.99
2023-05-19T05:13:05.520Z,8.21
2023-05-19T05:15:34.141Z,8.43
2023-05-19T05:18:03.135Z,8.53
2023-05-19T05:20:31.846Z,8.55
2023-05-19T05:22:59.706Z,8.54
2023-05-19T05:25:27.834Z,8.63
2023-05-19T05:27:55.187Z,8.67
2023-05-19T05:30:23.896Z,8.83
2023-05-19T05:32:52.749Z,8.91
2023-05-19T05:35:33.850Z,9.05
2023-05-19T05:38:02.594Z,9.00
2023-05-19T05:40:29.995Z,9.03
2023-05-19T05:42:59.239Z,9.13
2023-05-19T05:45:30.937Z,9.15
2023-05-19T05:48:01.176Z,9.23
2023-05-19T05:50:33.012Z,9.35
2023-05-19T05:53:02.328Z,9.36
2023-05-19T05:55:31.530Z,9.46
2023-05-19T05:58:06.405Z,9.68
2023-05-19T06:00:35.350Z,9.80
2023-05-19T06:03:18.780Z,9.98
2023-05-19T06:05:47.725Z,9.77
2023-05-19T06:08:18.494Z,9.99
2023-05-19T06:10:49.918Z,10.10
2023-05-19T06:13:23.127Z,10.31
2023-05-19T06:15:51.720Z,10.33
2023-05-19T06:18:32.866Z,10.32
2023-05-19T06:21:02.950Z,10.49
2023-05-19T06:23:33.407Z,10.45
2023-05-19T06:26:01.911Z,10.66
2023-05-19T06:28:30.822Z,10.76
2023-05-19T06:31:07.391Z,10.83
2023-05-19T06:33:51.847Z,10.85
2023-05-19T06:36:20.618Z,10.92
2023-05-19T06:38:49.889Z,10.91
2023-05-19T06:41:17.437Z,11.17
2023-05-19T06:43:50.974Z,11.28
2023-05-19T06:46:26.717Z,11.49
2023-05-19T06:48:54.303Z,11.50
2023-05-19T06:51:25.742Z,11.55
2023-05-19T06:54:00.285Z,11.71
2023-05-19T06:56:28.286Z,12.00
2023-05-19T06:58:56.328Z,12.01
2023-05-19T07:01:31.954Z,12.13
2023-05-19T07:04:03.326Z,12.13
2023-05-19T07:06:30.991Z,12.23
2023-05-19T07:08:58.352Z,12.22
2023-05-19T07:11:28.324Z,12.40
2023-05-19T07:13:56.837Z,12.53
2023-05-19T07:16:28.048Z,12.66
2023-05-19T07:18:56.910Z,12.68
2023-05-19T07:21:24.718Z,12.77
2023-05-19T07:23:52.820Z,13.09
2023-05-19T07:26:20.465Z,13.12
2023-05-19T07:28:47.747Z,13.29
2023-05-19T07:31:16.146Z,13.39
2023-05-19T07:33:44.443Z,13.49
2023-05-19T07:36:14.942Z,13.64
2023-05-19T07:38:42.297Z,13.75
2023-05-19T07:41:11.033Z,13.78
2023-05-19T07:43:38.806Z,13.98
2023-05-19T07:46:07.643Z,13.92
2023-05-19T07:48:35.566Z,14.02
2023-05-19T07:51:03.143Z,14.19
2023-05-19T07:53:33.905Z,14.31
2023-05-19T07:56:02.082Z,14.31
2023-05-19T07:58:30.718Z,14.50
2023-05-19T08:00:59.672Z,14.48
2023-05-19T08:03:27.867Z,14.66
2023-05-19T08:05:55.425Z,14.86
2023-05-19T08:08:25.728Z,14.96
2023-05-19T08:10:53.722Z,14.90
2023-05-19T08:13:21.080Z,15.09
2023-05-19T08:15:50.466Z,15.16
2023-05-19T08:18:18.681Z,15.31
2023-05-19T08:20:47.696Z,15.35
2023-05-19T08:23:15.121Z,15.47
2023-05-19T08:25:42.737Z,15.74
2023-05-19T08:28:10.025Z,15.77
2023-05-19T08:30:38.001Z,15.92
2023-05-19T08:33:07.193Z,15.86
2023-05-19T08:35:36.275Z,15.89
2023-05-19T08:38:03.644Z,16.05
2023-05-19T08:40:32.163Z,16.11
2023-05-19T08:43:00.762Z,16.17
2023-05-19T08:45:31.011Z,16.25
2023-05-19T08:48:01.462Z,16.54
2023-05-19T08:50:31.457Z,16.71
2023-05-19T08:53:05.560Z,17.00
2023-05-19T08:55:37.791Z,17.29
2023-05-19T08:58:06.197Z,17.30
2023-05-19T09:00:36.345Z,17.40
2023-05-19T09:03:18.153Z,17.49
2023-05-19T09:05:51.856Z,17.68
2023-05-19T09:08:20.370Z,17.76
2023-05-19T09:10:49.008Z,17.65
2023-05-19T09:13:25.851Z,17.74
2023-05-19T09:16:01.602Z,17.77
2023-05-19T09:18:32.788Z,18.02
2023-05-19T09:21:08.466Z,17.87
2023-05-19T09:23:40.157Z,17.88
2023-05-19T09:26:12.899Z,17.97
2023-05-19T09:28:41.793Z,17.99
2023-05-19T09:31:11.535Z,18.09
2023-05-19T09:33:45.484Z,18.21
2023-05-19T09:36:14.299Z,18.35
2023-05-19T09:38:43.337Z,18.50
2023-05-19T09:41:11.540Z,18.71
2023-05-19T09:43:55.344Z,18.81
2023-05-19T09:46:28.894Z,18.78
2023-05-19T09:49:00.732Z,18.86
2023-05-19T09:51:28.460Z,18.58
2023-05-19T09:53:55.883Z,19.05
2023-05-19T09:56:27.417Z,19.15
2023-05-19T09:58:55.757Z,19.07
2023-05-19T10:01:33.884Z,18.92
2023-05-19T10:04:08.613Z,19.01
2023-05-19T10:06:41.513Z,19.25
2023-05-19T10:09:09.279Z,19.50
2023-05-19T10:11:36.575Z,19.32
2023-05-19T10:14:06.322Z,19.32
2023-05-19T10:16:38.044Z,19.24
2023-05-19T10:19:08.244Z,19.33
2023-05-19T10:21:35.674Z,19.18
2023-05-19T10:24:03.097Z,19.33
2023-05-19T10:26:34.506Z,19.28
2023-05-19T10:29:05.698Z,19.32
2023-05-19T10:31:35.568Z,19.51
2023-05-19T10:34:22.847Z,19.76
2023-05-19T10:36:51.762Z,19.50
2023-05-19T10:39:26.702Z,19.52
2023-05-19T10:42:00.491Z,19.74
2023-05-19T10:44:29.152Z,19.68
2023-05-19T10:47:13.701Z,19.87
2023-05-19T10:49:42.427Z,20.11
2023-05-19T10:52:26.445Z,20.40
2023-05-19T10:54:55.919Z,20.45
2023-05-19T10:57:32.407Z,20.14
2023-05-19T11:00:03.505Z,20.21
2023-05-19T11:02:41.741Z,20.32
2023-05-19T11:05:12.258Z,20.35
2023-05-19T11:08:02.693Z,20.64
2023-05-19T11:10:34.182Z,20.55
2023-05-19T11:13:03.046Z,20.56
2023-05-19T11:15:37.475Z,20.25
2023-05-19T11:18:06.488Z,20.49
2023-05-19T11:20:39.214Z,20.10
2023-05-19T11:23:07.462Z,19.96
2023-05-19T11:25:46.085Z,20.25
2023-05-19T11:28:16.052Z,20.32
2023-05-19T11:30:46.473Z,20.44
2023-05-19T11:33:15.340Z,20.32
2023-05-19T11:35:44.818Z,20.11
2023-05-19T11:38:14.446Z,20.17
2023-05-19T11:40:45.028Z,20.39
2023-05-19T11:43:12.523Z,20.48
2023-05-19T11:45:40.186Z,20.37
2023-05-19T11:48:12.424Z,20.27
2023-05-19T11:50:47.970Z,20.31
2023-05-19T11:53:17.085Z,20.62
2023-05-19T11:55:48.772Z,20.96
2023-05-19T11:58:18.032Z,21.18
2023-05-19T12:00:49.357Z,20.98
2023-05-19T12:03:22.477Z,20.67
2023-05-19T12:05:50.298Z,20.71
2023-05-19T12:08:25.000Z,20.33
2023-05-19T12:10:53.623Z,20.12
2023-05-19T12:13:23.885Z,20.33
2023-05-19T12:15:52.679Z,20.67
2023-05-19T12:18:21.054Z,21.19
2023-05-19T12:20:49.188Z,21.27
2023-05-19T12:23:19.767Z,21.26
2023-05-19T12:25:48.710Z,21.02
2023-05-19T12:28:17.593Z,20.94
2023-05-19T12:30:49.522Z,21.20
2023-05-19T12:33:17.471Z,21.24
2023-05-19T12:35:45.764Z,21.29
2023-05-19T12:38:15.580Z,21.58
2023-05-19T12:40:46.280Z,21.75
2023-05-19T12:43:23.650Z,21.76
2023-05-19T12:45:51.893Z,22.04
2023-05-19T12:48:23.612Z,21.75
2023-05-19T12:50:56.424Z,21.26
2023-05-19T12:53:26.863Z,21.44
2023-05-19T12:55:54.500Z,21.78
2023-05-19T12:58:23.236Z,22.11
2023-05-19T13:00:51.468Z,22.21
2023-05-19T13:03:22.520Z,22.24
2023-05-19T13:05:58.128Z,22.43
2023-05-19T13:08:26.656Z,22.60
2023-05-19T13:10:54.725Z,22.65
2023-05-19T13:13:31.148Z,22.47
2023-05-19T13:16:09.078Z,22.53
2023-05-19T13:18:37.951Z,22.49
2023-05-19T13:21:06.106Z,22.28
2023-05-19T13:23:35.445Z,22.18
2023-05-19T13:26:07.811Z,22.12
2023-05-19T13:28:37.087Z,21.78
2023-05-19T13:31:05.585Z,21.69
2023-05-19T13:33:40.148Z,21.78
2023-05-19T13:36:52.486Z,21.82
2023-05-19T13:39:22.006Z,21.86
2023-05-19T13:42:06.365Z,22.14
2023-05-19T13:44:34.668Z,22.39
2023-05-19T13:47:08.218Z,22.12
2023-05-19T13:49:47.271Z,21.94
2023-05-19T13:52:15.291Z,22.29
2023-05-19T13:54:46.911Z,22.29
2023-05-19T13:57:34.494Z,22.33
2023-05-19T14:00:23.028Z,22.43
2023-05-19T14:02:57.636Z,22.11
2023-05-19T14:05:25.255Z,22.47
2023-05-19T14:07:53.358Z,22.74
2023-05-19T14:10:23.454Z,22.96
2023-05-19T14:13:32.031Z,23.00
2023-05-19T14:16:05.226Z,23.08
2023-05-19T14:18:32.758Z,22.25
2023-05-19T14:21:00.891Z,21.82
2023-05-19T14:23:32.730Z,21.54
2023-05-19T14:26:01.505Z,21.64
2023-05-19T14:28:30.325Z,22.22
2023-05-19T14:30:59.594Z,22.68
2023-05-19T14:33:35.176Z,22.51
2023-05-19T14:36:03.289Z,22.62
2023-05-19T14:38:31.542Z,22.22
2023-05-19T14:40:59.923Z,22.03
2023-05-19T14:43:53.092Z,22.37
2023-05-19T14:46:24.107Z,22.24
2023-05-19T14:49:39.718Z,22.37
2023-05-19T14:52:20.561Z,21.93
2023-05-19T14:55:18.627Z,21.59
2023-05-19T14:57:46.353Z,21.52
2023-05-19T15:00:20.588Z,21.82
2023-05-19T15:02:50.825Z,21.72
2023-05-19T15:05:23.809Z,22.04
2023-05-19T15:08:42.314Z,22.03
2023-05-19T15:11:35.897Z,21.98
2023-05-19T15:14:08.147Z,22.02
2023-05-19T15:16:47.841Z,21.88
2023-05-19T15:19:17.569Z,22.02
2023-05-19T15:21:52.113Z,21.86
2023-05-19T15:24:23.483Z,21.85
2023-05-19T15:30:16.076Z,21.93
2023-05-19T15:33:33.875Z,21.87
2023-05-19T15:36:05.974Z,22.04
2023-05-19T15:38:36.418Z,21.99
2023-05-19T15:41:17.070Z,22.11
2023-05-19T15:44:34.877Z,22.04
2023-05-19T15:50:40.171Z,21.73
2023-05-19T15:53:11.744Z,21.86
2023-05-19T15:55:44.684Z,21.85
2023-05-19T16:00:58.008Z,21.60
2023-05-19T16:03:25.978Z,21.73
2023-05-19T16:05:58.232Z,21.59
2023-05-19T16:08:29.896Z,21.47
2023-05-19T16:10:58.296Z,21.52
2023-05-19T16:13:25.737Z,21.55
2023-05-19T16:16:13.769Z,21.47
2023-05-19T16:19:07.782Z,21.63
2023-05-19T16:22:04.608Z,21.65
2023-05-19T16:24:33.174Z,21.41
2023-05-19T16:27:29.248Z,21.48
2023-05-19T16:30:47.948Z,21.46
2023-05-19T16:33:28.507Z,21.20
2023-05-19T16:39:26.804Z,21.14
2023-05-19T16:42:00.000Z,21.24
2023-05-19T16:44:30.540Z,21.25
2023-05-19T16:50:56.184Z,21.02
2023-05-19T16:57:34.442Z,20.90
2023-05-19T17:00:03.099Z,20.90
2023-05-19T17:02:32.154Z,21.02
2023-05-19T17:05:02.187Z,20.92
2023-05-19T17:07:29.730Z,20.82
2023-05-19T17:09:58.207Z,20.68
2023-05-19T17:12:27.169Z,20.50
2023-05-19T17:14:58.975Z,20.48
2023-05-19T17:17:28.653Z,20.42
2023-05-19T17:19:56.984Z,20.55
2023-05-19T17:22:30.285Z,20.54
2023-05-19T17:24:57.929Z,20.56
2023-05-19T17:27:28.479Z,20.44
2023-05-19T17:29:57.052Z,20.29
2023-05-19T17:32:28.546Z,20.32
2023-05-19T17:34:58.436Z,20.30
2023-05-19T17:37:26.501Z,20.25
2023-05-19T17:39:54.532Z,20.08
2023-05-19T17:42:21.816Z,20.05
2023-05-19T17:44:52.751Z,20.02
2023-05-19T17:47:20.265Z,19.91
2023-05-19T17:49:48.437Z,19.82
2023-05-19T17:52:19.260Z,19.62
2023-05-19T17:54:52.203Z,19.67
2023-05-19T17:57:21.612Z,19.27
2023-05-19T17:59:49.567Z,19.65
2023-05-19T18:02:22.163Z,19.60
2023-05-19T18:04:49.993Z,19.50
2023-05-19T18:11:33.161Z,19.39
2023-05-19T18:14:07.750Z,19.33
2023-05-19T18:16:42.354Z,19.25
2023-05-19T18:19:35.807Z,19.18
2023-05-19T18:22:32.266Z,19.14
2023-05-19T18:25:37.322Z,18.97
2023-05-19T18:28:05.747Z,18.72
2023-05-19T18:31:01.028Z,18.76
2023-05-19T18:33:36.029Z,18.56
2023-05-19T18:36:32.387Z,18.51
2023-05-19T18:38:59.999Z,18.50
2023-05-19T18:41:31.805Z,18.41
2023-05-19T18:44:00.479Z,18.24
2023-05-19T18:46:38.264Z,18.23
2023-05-19T18:49:11.611Z,18.04
2023-05-19T18:51:39.955Z,18.06
2023-05-19T18:54:17.157Z,17.98
2023-05-19T18:56:48.182Z,17.97
2023-05-19T18:59:40.930Z,17.94
2023-05-19T19:02:40.328Z,17.85
2023-05-19T19:05:13.644Z,17.77
2023-05-19T19:08:02.659Z,17.65
2023-05-19T19:10:34.961Z,17.55
2023-05-19T19:13:47.573Z,17.48
2023-05-19T19:16:33.431Z,17.43
2023-05-19T19:19:02.334Z,17.33
2023-05-19T19:21:32.892Z,17.28
2023-05-19T19:24:02.696Z,17.18
2023-05-19T19:26:31.633Z,17.01
2023-05-19T19:28:59.445Z,16.91
2023-05-19T19:31:43.962Z,16.81
2023-05-19T19:34:14.408Z,16.78
2023-05-19T19:36:44.952Z,16.79
2023-05-19T19:39:31.063Z,16.70
2023-05-19T19:41:59.636Z,16.64
2023-05-19T19:44:33.687Z,16.46
2023-05-19T19:47:33.232Z,16.47
2023-05-19T19:50:01.495Z,16.36
2023-05-19T19:52:34.908Z,16.34
2023-05-19T19:58:30.740Z,16.20
2023-05-19T20:01:29.019Z,16.16
2023-05-19T20:08:48.283Z,15.97
2023-05-19T20:11:28.119Z,15.86
2023-05-19T20:14:31.528Z,15.79
2023-05-19T20:17:00.959Z,15.63
2023-05-19T20:23:34.024Z,15.57
2023-05-19T20:30:46.658Z,15.42
2023-05-19T20:33:50.627Z,15.38
2023-05-19T20:39:58.062Z,15.33
2023-05-19T20:42:39.618Z,15.20
2023-05-19T20:45:40.171Z,15.09
2023-05-19T20:48:33.010Z,15.07
2023-05-19T20:54:10.560Z,14.91
2023-05-19T20:56:38.103Z,14.95
2023-05-19T20:59:30.504Z,14.92
2023-05-19T21:02:32.693Z,14.89
2023-05-19T21:05:38.122Z,14.88
2023-05-19T21:08:12.185Z,14.79
2023-05-19T21:11:26.230Z,14.81
2023-05-19T21:14:07.133Z,14.71
2023-05-19T21:16:40.493Z,14.66
2023-05-19T21:20:01.921Z,14.62
2023-05-19T21:25:39.825Z,14.52
2023-05-19T21:28:56.762Z,14.41
2023-05-19T21:31:26.199Z,14.39
2023-05-19T21:36:36.614Z,14.36
2023-05-19T21:39:33.635Z,14.37
2023-05-19T21:42:51.551Z,14.31
2023-05-19T21:49:23.387Z,14.24
2023-05-19T21:51:58.034Z,14.21
2023-05-19T21:58:02.187Z,14.21
2023-05-19T22:00:33.575Z,14.22
2023-05-19T22:03:27.882Z,14.18
2023-05-19T22:06:32.855Z,14.16
2023-05-19T22:09:25.503Z,14.13
2023-05-19T22:11:52.705Z,14.19
2023-05-19T22:17:45.817Z,14.12
2023-05-19T22:24:14.273Z,14.01
2023-05-19T22:27:34.986Z,13.92
2023-05-19T22:30:31.449Z,14.02
2023-05-19T22:33:35.365Z,13.87
2023-05-19T22:39:13.181Z,13.91
2023-05-19T22:41:49.922Z,13.98
2023-05-19T22:44:54.860Z,13.91
2023-05-19T22:48:23.848Z,13.83
2023-05-19T22:54:57.798Z,13.81
2023-05-19T22:57:26.783Z,13.77
2023-05-19T23:00:44.766Z,13.74
2023-05-19T23:03:32.586Z,13.72
2023-05-19T23:05:59.692Z,13.68
2023-05-19T23:08:34.224Z,13.65
2023-05-19T23:11:32.623Z,13.60
2023-05-19T23:14:35.194Z,13.59
2023-05-19T23:25:32.732Z,13.63
2023-05-19T23:28:26.072Z,13.59
2023-05-19T23:30:53.689Z,13.59
2023-05-19T23:37:00.617Z,13.49
2023-05-19T23:39:32.663Z,13.46
2023-05-19T23:42:03.881Z,13.40
2023-05-19T23:44:31.325Z,13.60
2023-05-19T23:47:35.381Z,13.58
2023-05-19T23:50:12.802Z,13.54
2023-05-19T23:52:43.338Z,13.54
2023-05-19T23:56:00.639Z,13.46
2023-05-19T23:58:31.709Z,13.45
